sensor_id;sensor_type;location;lat;lon;timestamp;pressure;altitude;pressure_sealevel;temperature;humidity
77725;BME280;66892;53.236;6.550;2024-02-16T00:01:22;101038.03;;;10.51;100.00
77725;BME280;66892;53.236;6.550;2024-02-16T00:03:48;101037.16;;;10.44;100.00
77725;BME280;66892;53.236;6.550;2024-02-16T00:06:14;101037.16;;;10.37;100.00
77725;BME280;66892;53.236;6.550;2024-02-16T00:08:40;101037.16;;;10.41;100.00
77725;BME280;66892;53.236;6.550;2024-02-16T00:11:06;101043.31;;;10.39;100.00
77725;BME280;66892;53.236;6.550;2024-02-16T00:13:32;101038.91;;;10.47;100.00
77725;BME280;66892;53.236;6.550;2024-02-16T00:16:00;101032.75;;;10.45;100.00
77725;BME280;66892;53.236;6.550;2024-02-16T00:18:26;101025.72;;;10.59;100.00
77725;BME280;66892;53.236;6.550;2024-02-16T00:20:52;101029.22;;;10.55;100.00
77725;BME280;66892;53.236;6.550;2024-02-16T00:23:18;101013.38;;;10.49;100.00
77725;BME280;66892;53.236;6.550;2024-02-16T00:25:48;101013.38;;;10.34;100.00
77725;BME280;66892;53.236;6.550;2024-02-16T00:28:14;101016.88;;;10.25;100.00
77725;BME280;66892;53.236;6.550;2024-02-16T00:30:40;101010.69;;;10.11;100.00
77725;BME280;66892;53.236;6.550;2024-02-16T00:33:08;101017.72;;;10.07;100.00
77725;BME280;66892;53.236;6.550;2024-02-16T00:35:34;101009.78;;;10.06;100.00
77725;BME280;66892;53.236;6.550;2024-02-16T00:38:00;101006.25;;;10.08;100.00
77725;BME280;66892;53.236;6.550;2024-02-16T00:40:26;101007.13;;;10.06;100.00
77725;BME280;66892;53.236;6.550;2024-02-16T00:42:52;101000.09;;;10.00;100.00
77725;BME280;66892;53.236;6.550;2024-02-16T00:45:19;100998.31;;;9.96;100.00
77725;BME280;66892;53.236;6.550;2024-02-16T00:47:45;100996.56;;;9.97;100.00
77725;BME280;66892;53.236;6.550;2024-02-16T00:50:12;100998.31;;;10.02;100.00
77725;BME280;66892;53.236;6.550;2024-02-16T00:52:39;101000.09;;;10.06;100.00
77725;BME280;66892;53.236;6.550;2024-02-16T00:55:06;100997.44;;;10.02;100.00
77725;BME280;66892;53.236;6.550;2024-02-16T00:57:32;101001.84;;;9.94;100.00
77725;BME280;66892;53.236;6.550;2024-02-16T01:00:00;100993.00;;;9.89;100.00
77725;BME280;66892;53.236;6.550;2024-02-16T01:02:26;100996.53;;;9.91;100.00
77725;BME280;66892;53.236;6.550;2024-02-16T01:04:52;100993.03;;;9.90;100.00
77725;BME280;66892;53.236;6.550;2024-02-16T01:07:20;100980.69;;;9.94;100.00
77725;BME280;66892;53.236;6.550;2024-02-16T01:09:46;100986.84;;;9.90;100.00
77725;BME280;66892;53.236;6.550;2024-02-16T01:12:12;100985.97;;;9.85;100.00
77725;BME280;66892;53.236;6.550;2024-02-16T01:14:38;100977.16;;;9.86;100.00
77725;BME280;66892;53.236;6.550;2024-02-16T01:17:04;100978.94;;;9.85;100.00
77725;BME280;66892;53.236;6.550;2024-02-16T01:19:30;100968.34;;;9.84;100.00
77725;BME280;66892;53.236;6.550;2024-02-16T01:21:56;100970.13;;;9.89;100.00
77725;BME280;66892;53.236;6.550;2024-02-16T01:24:24;100979.78;;;9.83;100.00
77725;BME280;66892;53.236;6.550;2024-02-16T01:26:50;100963.09;;;9.82;100.00
77725;BME280;66892;53.236;6.550;2024-02-16T01:29:16;100972.75;;;9.77;100.00
77725;BME280;66892;53.236;6.550;2024-02-16T01:31:42;100971.84;;;9.77;100.00
77725;BME280;66892;53.236;6.550;2024-02-16T01:34:08;100976.25;;;9.75;100.00
77725;BME280;66892;53.236;6.550;2024-02-16T01:36:34;100965.69;;;9.69;100.00
77725;BME280;66892;53.236;6.550;2024-02-16T01:39:00;100975.38;;;9.65;100.00
77725;BME280;66892;53.236;6.550;2024-02-16T01:41:28;100976.25;;;9.69;100.00
77725;BME280;66892;53.236;6.550;2024-02-16T01:43:54;100964.78;;;9.67;100.00
77725;BME280;66892;53.236;6.550;2024-02-16T01:46:23;100960.41;;;9.66;100.00
77725;BME280;66892;53.236;6.550;2024-02-16T01:48:49;100959.50;;;9.64;100.00
77725;BME280;66892;53.236;6.550;2024-02-16T01:51:16;100968.31;;;9.63;100.00
77725;BME280;66892;53.236;6.550;2024-02-16T01:53:42;100964.78;;;9.62;100.00
77725;BME280;66892;53.236;6.550;2024-02-16T01:56:08;100963.03;;;9.64;100.00
77725;BME280;66892;53.236;6.550;2024-02-16T01:58:36;100963.03;;;9.63;100.00
77725;BME280;66892;53.236;6.550;2024-02-16T02:01:02;100948.97;;;9.68;100.00
77725;BME280;66892;53.236;6.550;2024-02-16T02:03:29;100957.75;;;9.64;100.00
77725;BME280;66892;53.236;6.550;2024-02-16T02:05:55;100956.00;;;9.65;100.00
77725;BME280;66892;53.236;6.550;2024-02-16T02:08:22;100949.84;;;9.66;100.00
77725;BME280;66892;53.236;6.550;2024-02-16T02:10:48;100952.50;;;9.66;100.00
77725;BME280;66892;53.236;6.550;2024-02-16T02:13:15;100948.06;;;9.62;100.00
77725;BME280;66892;53.236;6.550;2024-02-16T02:15:42;100940.16;;;9.66;100.00
77725;BME280;66892;53.236;6.550;2024-02-16T02:18:08;100934.88;;;9.71;100.00
77725;BME280;66892;53.236;6.550;2024-02-16T02:20:34;100934.91;;;9.66;100.00
77725;BME280;66892;53.236;6.550;2024-02-16T02:23:02;100936.66;;;9.66;100.00
77725;BME280;66892;53.236;6.550;2024-02-16T02:25:29;100930.44;;;9.61;100.00
77725;BME280;66892;53.236;6.550;2024-02-16T02:27:55;100938.38;;;9.58;100.00
77725;BME280;66892;53.236;6.550;2024-02-16T02:30:21;100933.97;;;9.49;100.00
77725;BME280;66892;53.236;6.550;2024-02-16T02:32:49;100929.56;;;9.43;100.00
77725;BME280;66892;53.236;6.550;2024-02-16T02:35:16;100933.06;;;9.36;100.00
77725;BME280;66892;53.236;6.550;2024-02-16T02:37:43;100928.66;;;9.31;100.00
77725;BME280;66892;53.236;6.550;2024-02-16T02:40:11;100925.09;;;9.26;100.00
77725;BME280;66892;53.236;6.550;2024-02-16T02:42:38;100915.41;;;9.17;100.00
77725;BME280;66892;53.236;6.550;2024-02-16T02:45:05;100916.25;;;9.16;100.00
77725;BME280;66892;53.236;6.550;2024-02-16T02:47:31;100906.59;;;9.14;100.00
77725;BME280;66892;53.236;6.550;2024-02-16T02:49:58;100900.44;;;9.16;100.00
77725;BME280;66892;53.236;6.550;2024-02-16T02:52:24;100900.44;;;9.16;100.00
77725;BME280;66892;53.236;6.550;2024-02-16T02:54:50;100896.03;;;9.14;100.00
77725;BME280;66892;53.236;6.550;2024-02-16T02:57:17;100906.56;;;9.12;100.00
77725;BME280;66892;53.236;6.550;2024-02-16T02:59:43;100901.31;;;9.11;100.00
77725;BME280;66892;53.236;6.550;2024-02-16T03:02:11;100892.50;;;9.10;100.00
77725;BME280;66892;53.236;6.550;2024-02-16T03:04:37;100892.47;;;9.06;100.00
77725;BME280;66892;53.236;6.550;2024-02-16T03:07:03;100888.97;;;9.05;100.00
77725;BME280;66892;53.236;6.550;2024-02-16T03:09:29;100895.13;;;9.04;100.00
77725;BME280;66892;53.236;6.550;2024-02-16T03:11:55;100897.75;;;9.09;100.00
77725;BME280;66892;53.236;6.550;2024-02-16T03:14:22;100896.91;;;9.14;100.00
77725;BME280;66892;53.236;6.550;2024-02-16T03:16:48;100895.19;;;9.18;100.00
77725;BME280;66892;53.236;6.550;2024-02-16T03:19:14;100891.66;;;9.17;100.00
77725;BME280;66892;53.236;6.550;2024-02-16T03:21:40;100887.25;;;9.22;100.00
77725;BME280;66892;53.236;6.550;2024-02-16T03:24:07;100890.78;;;9.21;100.00
77725;BME280;66892;53.236;6.550;2024-02-16T03:26:33;100885.53;;;9.24;100.00
77725;BME280;66892;53.236;6.550;2024-02-16T03:28:59;100883.78;;;9.28;100.00
77725;BME280;66892;53.236;6.550;2024-02-16T03:31:26;100871.44;;;9.25;100.00
77725;BME280;66892;53.236;6.550;2024-02-16T03:33:53;100883.75;;;9.26;100.00
77725;BME280;66892;53.236;6.550;2024-02-16T03:36:19;100863.53;;;9.28;100.00
77725;BME280;66892;53.236;6.550;2024-02-16T03:38:46;100861.78;;;9.35;100.00
77725;BME280;66892;53.236;6.550;2024-02-16T03:41:13;100861.78;;;9.44;100.00
77725;BME280;66892;53.236;6.550;2024-02-16T03:43:40;100866.19;;;9.45;100.00
77725;BME280;66892;53.236;6.550;2024-02-16T03:46:06;100866.19;;;9.48;100.00
77725;BME280;66892;53.236;6.550;2024-02-16T03:48:33;100875.88;;;9.47;100.00
77725;BME280;66892;53.236;6.550;2024-02-16T03:51:00;100878.50;;;9.38;100.00
77725;BME280;66892;53.236;6.550;2024-02-16T03:53:27;100887.28;;;9.27;100.00
77725;BME280;66892;53.236;6.550;2024-02-16T03:55:53;100891.66;;;9.22;100.00
77725;BME280;66892;53.236;6.550;2024-02-16T03:58:19;100883.72;;;9.16;100.00
77725;BME280;66892;53.236;6.550;2024-02-16T04:00:45;100879.28;;;9.09;100.00
77725;BME280;66892;53.236;6.550;2024-02-16T04:03:11;100884.56;;;9.06;100.00
77725;BME280;66892;53.236;6.550;2024-02-16T04:05:39;100877.50;;;8.95;100.00
77725;BME280;66892;53.236;6.550;2024-02-16T04:08:06;100871.34;;;8.92;100.00
77725;BME280;66892;53.236;6.550;2024-02-16T04:10:32;100882.75;;;8.91;100.00
77725;BME280;66892;53.236;6.550;2024-02-16T04:12:58;100866.91;;;8.89;100.00
77725;BME280;66892;53.236;6.550;2024-02-16T04:15:24;100862.50;;;8.81;100.00
77725;BME280;66892;53.236;6.550;2024-02-16T04:17:51;100857.22;;;8.78;100.00
77725;BME280;66892;53.236;6.550;2024-02-16T04:20:17;100866.06;;;8.86;100.00
77725;BME280;66892;53.236;6.550;2024-02-16T04:22:45;100870.47;;;8.94;100.00
77725;BME280;66892;53.236;6.550;2024-02-16T04:25:11;100844.97;;;8.92;100.00
77725;BME280;66892;53.236;6.550;2024-02-16T04:27:38;100859.91;;;8.88;100.00
77725;BME280;66892;53.236;6.550;2024-02-16T04:30:05;100867.78;;;8.87;100.00
77725;BME280;66892;53.236;6.550;2024-02-16T04:32:32;100851.09;;;8.89;100.00
77725;BME280;66892;53.236;6.550;2024-02-16T04:34:58;100866.97;;;8.95;100.00
77725;BME280;66892;53.236;6.550;2024-02-16T04:37:25;100856.41;;;8.95;100.00
77725;BME280;66892;53.236;6.550;2024-02-16T04:39:52;100859.94;;;8.97;100.00
77725;BME280;66892;53.236;6.550;2024-02-16T04:42:18;100872.25;;;9.06;100.00
77725;BME280;66892;53.236;6.550;2024-02-16T04:44:44;100867.00;;;9.12;100.00
77725;BME280;66892;53.236;6.550;2024-02-16T04:47:10;100870.53;;;9.14;100.00
77725;BME280;66892;53.236;6.550;2024-02-16T04:49:37;100880.19;;;9.15;100.00
77725;BME280;66892;53.236;6.550;2024-02-16T04:52:03;100874.91;;;9.12;100.00
77725;BME280;66892;53.236;6.550;2024-02-16T04:54:29;100876.66;;;9.10;100.00
77725;BME280;66892;53.236;6.550;2024-02-16T04:56:56;100878.44;;;9.13;100.00
77725;BME280;66892;53.236;6.550;2024-02-16T04:59:23;100867.03;;;9.17;100.00
77725;BME280;66892;53.236;6.550;2024-02-16T05:01:48;100855.53;;;9.06;100.00
77725;BME280;66892;53.236;6.550;2024-02-16T05:04:15;100861.69;;;8.97;100.00
77725;BME280;66892;53.236;6.550;2024-02-16T05:06:45;100860.78;;;8.90;100.00
77725;BME280;66892;53.236;6.550;2024-02-16T05:09:12;100860.78;;;8.93;100.00
77725;BME280;66892;53.236;6.550;2024-02-16T05:11:42;100862.56;;;8.97;100.00
77725;BME280;66892;53.236;6.550;2024-02-16T05:14:10;100867.84;;;9.00;100.00
77725;BME280;66892;53.236;6.550;2024-02-16T05:16:42;100867.88;;;9.05;100.00
77725;BME280;66892;53.236;6.550;2024-02-16T05:19:08;100865.25;;;9.08;100.00
77725;BME280;66892;53.236;6.550;2024-02-16T05:21:34;100867.00;;;9.15;100.00
77725;BME280;66892;53.236;6.550;2024-02-16T05:24:01;100851.22;;;9.24;100.00
77725;BME280;66892;53.236;6.550;2024-02-16T05:26:27;100854.75;;;9.32;100.00
77725;BME280;66892;53.236;6.550;2024-02-16T05:28:53;100844.19;;;9.29;100.00
77725;BME280;66892;53.236;6.550;2024-02-16T05:31:20;100847.69;;;9.25;100.00
77725;BME280;66892;53.236;6.550;2024-02-16T05:33:48;100845.94;;;9.21;100.00
77725;BME280;66892;53.236;6.550;2024-02-16T05:36:16;100843.31;;;9.21;100.00
77725;BME280;66892;53.236;6.550;2024-02-16T05:38:44;100836.25;;;9.22;100.00
77725;BME280;66892;53.236;6.550;2024-02-16T05:41:10;100844.19;;;9.26;100.00
77725;BME280;66892;53.236;6.550;2024-02-16T05:43:37;100849.47;;;9.34;100.00
77725;BME280;66892;53.236;6.550;2024-02-16T05:46:04;100843.31;;;9.41;100.00
77725;BME280;66892;53.236;6.550;2024-02-16T05:48:34;100845.94;;;9.38;100.00
77725;BME280;66892;53.236;6.550;2024-02-16T05:51:04;100841.56;;;9.35;100.00
77725;BME280;66892;53.236;6.550;2024-02-16T05:53:31;100837.16;;;9.36;100.00
77725;BME280;66892;53.236;6.550;2024-02-16T05:55:57;100841.56;;;9.35;100.00
77725;BME280;66892;53.236;6.550;2024-02-16T05:58:24;100835.38;;;9.26;100.00
77725;BME280;66892;53.236;6.550;2024-02-16T06:00:50;100833.63;;;9.20;100.00
77725;BME280;66892;53.236;6.550;2024-02-16T06:03:16;100831.84;;;9.19;100.00
77725;BME280;66892;53.236;6.550;2024-02-16T06:05:44;100826.56;;;9.25;100.00
77725;BME280;66892;53.236;6.550;2024-02-16T06:08:10;100825.72;;;9.26;100.00
77725;BME280;66892;53.236;6.550;2024-02-16T06:10:36;100823.97;;;9.27;100.00
77725;BME280;66892;53.236;6.550;2024-02-16T06:13:03;100823.94;;;9.28;100.00
77725;BME280;66892;53.236;6.550;2024-02-16T06:15:29;100827.50;;;9.36;100.00
77725;BME280;66892;53.236;6.550;2024-02-16T06:17:55;100827.47;;;9.33;100.00
77725;BME280;66892;53.236;6.550;2024-02-16T06:20:21;100831.00;;;9.32;100.00
77725;BME280;66892;53.236;6.550;2024-02-16T06:22:49;100833.63;;;9.32;100.00
77725;BME280;66892;53.236;6.550;2024-02-16T06:25:15;100831.84;;;9.25;100.00
77725;BME280;66892;53.236;6.550;2024-02-16T06:27:41;100837.13;;;9.19;100.00
77725;BME280;66892;53.236;6.550;2024-02-16T06:30:08;100834.47;;;9.04;100.00
77725;BME280;66892;53.236;6.550;2024-02-16T06:32:38;100833.53;;;8.99;100.00
77725;BME280;66892;53.236;6.550;2024-02-16T06:35:05;100824.75;;;8.94;100.00
77725;BME280;66892;53.236;6.550;2024-02-16T06:37:33;100835.25;;;8.86;100.00
77725;BME280;66892;53.236;6.550;2024-02-16T06:40:00;100841.41;;;8.81;100.00
77725;BME280;66892;53.236;6.550;2024-02-16T06:42:26;100838.78;;;8.84;100.00
77725;BME280;66892;53.236;6.550;2024-02-16T06:44:52;100854.59;;;8.87;100.00
77725;BME280;66892;53.236;6.550;2024-02-16T06:47:18;100852.84;;;8.83;100.00
77725;BME280;66892;53.236;6.550;2024-02-16T06:49:44;100848.47;;;8.85;100.00
77725;BME280;66892;53.236;6.550;2024-02-16T06:52:12;100847.56;;;8.81;100.00
77725;BME280;66892;53.236;6.550;2024-02-16T06:54:38;100850.19;;;8.80;100.00
77725;BME280;66892;53.236;6.550;2024-02-16T06:57:05;100854.56;;;8.75;100.00
77725;BME280;66892;53.236;6.550;2024-02-16T06:59:32;100860.69;;;8.74;100.00
77725;BME280;66892;53.236;6.550;2024-02-16T07:01:58;100858.06;;;8.74;100.00
77725;BME280;66892;53.236;6.550;2024-02-16T07:04:24;100853.69;;;8.76;100.00
77725;BME280;66892;53.236;6.550;2024-02-16T07:06:50;100854.56;;;8.78;100.00
77725;BME280;66892;53.236;6.550;2024-02-16T07:09:16;100859.84;;;8.81;100.00
77725;BME280;66892;53.236;6.550;2024-02-16T07:11:42;100862.53;;;8.85;100.00
77725;BME280;66892;53.236;6.550;2024-02-16T07:14:12;100871.34;;;8.95;100.00
77725;BME280;66892;53.236;6.550;2024-02-16T07:16:38;100870.50;;;9.07;100.00
77725;BME280;66892;53.236;6.550;2024-02-16T07:19:04;100860.88;;;9.15;100.00
77725;BME280;66892;53.236;6.550;2024-02-16T07:21:31;100865.28;;;9.25;100.00
77725;BME280;66892;53.236;6.550;2024-02-16T07:23:57;100871.44;;;9.31;100.00
77725;BME280;66892;53.236;6.550;2024-02-16T07:26:23;100873.22;;;9.34;100.00
77725;BME280;66892;53.236;6.550;2024-02-16T07:28:49;100884.66;;;9.36;100.00
77725;BME280;66892;53.236;6.550;2024-02-16T07:31:16;100887.28;;;9.33;100.00
77725;BME280;66892;53.236;6.550;2024-02-16T07:33:42;100885.53;;;9.36;100.00
77725;BME280;66892;53.236;6.550;2024-02-16T07:36:08;100883.78;;;9.38;100.00
77725;BME280;66892;53.236;6.550;2024-02-16T07:38:35;100884.69;;;9.43;100.00
77725;BME280;66892;53.236;6.550;2024-02-16T07:41:01;100891.72;;;9.49;100.00
77725;BME280;66892;53.236;6.550;2024-02-16T07:43:28;100890.84;;;9.51;100.00
77725;BME280;66892;53.236;6.550;2024-02-16T07:45:54;100893.50;;;9.56;100.00
77725;BME280;66892;53.236;6.550;2024-02-16T07:48:21;100894.41;;;9.66;100.00
77725;BME280;66892;53.236;6.550;2024-02-16T07:50:48;100893.50;;;9.68;100.00
77725;BME280;66892;53.236;6.550;2024-02-16T07:53:14;100885.63;;;9.73;100.00
77725;BME280;66892;53.236;6.550;2024-02-16T07:55:40;100894.38;;;9.73;100.00
77725;BME280;66892;53.236;6.550;2024-02-16T07:58:06;100893.53;;;9.76;100.00
77725;BME280;66892;53.236;6.550;2024-02-16T08:00:32;100896.19;;;9.79;100.00
77725;BME280;66892;53.236;6.550;2024-02-16T08:02:58;100895.28;;;9.83;100.00
77725;BME280;66892;53.236;6.550;2024-02-16T08:05:26;100882.06;;;9.86;100.00
77725;BME280;66892;53.236;6.550;2024-02-16T08:07:52;100882.94;;;9.89;100.00
77725;BME280;66892;53.236;6.550;2024-02-16T08:10:19;100882.06;;;9.96;100.00
77725;BME280;66892;53.236;6.550;2024-02-16T08:12:48;100878.56;;;10.03;100.00
77725;BME280;66892;53.236;6.550;2024-02-16T08:15:15;100881.19;;;10.10;100.00
77725;BME280;66892;53.236;6.550;2024-02-16T08:17:41;100873.25;;;10.13;100.00
77725;BME280;66892;53.236;6.550;2024-02-16T08:20:08;100886.50;;;10.19;100.00
77725;BME280;66892;53.236;6.550;2024-02-16T08:22:35;100883.88;;;10.23;100.00
77725;BME280;66892;53.236;6.550;2024-02-16T08:25:02;100884.75;;;10.30;100.00
77725;BME280;66892;53.236;6.550;2024-02-16T08:27:28;100886.50;;;10.40;100.00
77725;BME280;66892;53.236;6.550;2024-02-16T08:29:54;100897.06;;;10.43;100.00
77725;BME280;66892;53.236;6.550;2024-02-16T08:32:20;100893.50;;;10.48;100.00
77725;BME280;66892;53.236;6.550;2024-02-16T08:34:49;100893.47;;;10.50;100.00
77725;BME280;66892;53.236;6.550;2024-02-16T08:37:16;100894.38;;;10.50;100.00
77725;BME280;66892;53.236;6.550;2024-02-16T08:39:43;100897.03;;;10.55;100.00
77725;BME280;66892;53.236;6.550;2024-02-16T08:42:09;100901.41;;;10.57;100.00
77725;BME280;66892;53.236;6.550;2024-02-16T08:44:37;100903.19;;;10.54;100.00
77725;BME280;66892;53.236;6.550;2024-02-16T08:47:04;100903.19;;;10.55;100.00
77725;BME280;66892;53.236;6.550;2024-02-16T08:49:30;100910.22;;;10.56;100.00
77725;BME280;66892;53.236;6.550;2024-02-16T08:51:56;100908.47;;;10.57;100.00
77725;BME280;66892;53.236;6.550;2024-02-16T08:54:22;100919.94;;;10.56;100.00
77725;BME280;66892;53.236;6.550;2024-02-16T08:56:50;100913.75;;;10.60;100.00
77725;BME280;66892;53.236;6.550;2024-02-16T08:59:16;100921.66;;;10.63;100.00
77725;BME280;66892;53.236;6.550;2024-02-16T09:01:42;100924.28;;;10.69;100.00
77725;BME280;66892;53.236;6.550;2024-02-16T09:04:09;100941.03;;;10.74;100.00
77725;BME280;66892;53.236;6.550;2024-02-16T09:06:35;100922.53;;;10.79;100.00
77725;BME280;66892;53.236;6.550;2024-02-16T09:09:01;100926.91;;;10.87;100.00
77725;BME280;66892;53.236;6.550;2024-02-16T09:11:28;100923.38;;;10.91;100.00
77725;BME280;66892;53.236;6.550;2024-02-16T09:13:55;100932.13;;;11.02;100.00
77725;BME280;66892;53.236;6.550;2024-02-16T09:16:21;100933.88;;;11.14;100.00
77725;BME280;66892;53.236;6.550;2024-02-16T09:18:47;100928.50;;;11.26;100.00
77725;BME280;66892;53.236;6.550;2024-02-16T09:21:14;100934.66;;;11.33;100.00
77725;BME280;66892;53.236;6.550;2024-02-16T09:23:40;100926.66;;;11.45;100.00
77725;BME280;66892;53.236;6.550;2024-02-16T09:26:06;100937.19;;;11.49;100.00
77725;BME280;66892;53.236;6.550;2024-02-16T09:28:38;100947.75;;;11.57;100.00
77725;BME280;66892;53.236;6.550;2024-02-16T09:31:06;100947.72;;;11.64;100.00
77725;BME280;66892;53.236;6.550;2024-02-16T09:33:33;100946.81;;;11.73;100.00
77725;BME280;66892;53.236;6.550;2024-02-16T09:35:59;100947.63;;;11.84;100.00
77725;BME280;66892;53.236;6.550;2024-02-16T09:38:25;100956.31;;;12.01;100.00
77725;BME280;66892;53.236;6.550;2024-02-16T09:40:51;100958.84;;;12.20;100.00
77725;BME280;66892;53.236;6.550;2024-02-16T09:43:25;100958.75;;;12.32;100.00
77725;BME280;66892;53.236;6.550;2024-02-16T09:45:55;100969.31;;;12.39;100.00
77725;BME280;66892;53.236;6.550;2024-02-16T09:48:22;100978.00;;;12.53;100.00
77725;BME280;66892;53.236;6.550;2024-02-16T09:50:50;100976.22;;;12.54;100.00
77725;BME280;66892;53.236;6.550;2024-02-16T09:53:17;100983.28;;;12.58;100.00
77725;BME280;66892;53.236;6.550;2024-02-16T09:55:46;100981.50;;;12.58;100.00
77725;BME280;66892;53.236;6.550;2024-02-16T09:58:12;100992.94;;;12.63;100.00
77725;BME280;66892;53.236;6.550;2024-02-16T10:00:48;100987.53;;;12.73;100.00
77725;BME280;66892;53.236;6.550;2024-02-16T10:03:23;100989.22;;;12.83;100.00
77725;BME280;66892;53.236;6.550;2024-02-16T10:05:50;100993.53;;;12.93;100.00
77725;BME280;66892;53.236;6.550;2024-02-16T10:08:16;101000.50;;;13.03;100.00
77725;BME280;66892;53.236;6.550;2024-02-16T10:10:42;101013.75;;;13.09;100.00
77725;BME280;66892;53.236;6.550;2024-02-16T10:13:08;101003.97;;;13.11;100.00
77725;BME280;66892;53.236;6.550;2024-02-16T10:15:34;100995.81;;;13.26;100.00
77725;BME280;66892;53.236;6.550;2024-02-16T10:18:01;101001.09;;;13.31;100.00
77725;BME280;66892;53.236;6.550;2024-02-16T10:20:31;101005.41;;;13.41;100.00
77725;BME280;66892;53.236;6.550;2024-02-16T10:23:07;101015.19;;;13.36;100.00
77725;BME280;66892;53.236;6.550;2024-02-16T10:25:33;101021.53;;;13.24;100.00
77725;BME280;66892;53.236;6.550;2024-02-16T10:28:04;101019.88;;;13.15;100.00
77725;BME280;66892;53.236;6.550;2024-02-16T10:30:34;101007.56;;;13.04;100.00
77725;BME280;66892;53.236;6.550;2024-02-16T10:33:02;101011.22;;;12.94;100.00
77725;BME280;66892;53.236;6.550;2024-02-16T10:35:30;101029.84;;;12.89;100.00
77725;BME280;66892;53.236;6.550;2024-02-16T10:37:57;101026.34;;;12.86;100.00
77725;BME280;66892;53.236;6.550;2024-02-16T10:40:24;101020.22;;;12.76;100.00
77725;BME280;66892;53.236;6.550;2024-02-16T10:42:52;101036.16;;;12.76;100.00
77725;BME280;66892;53.236;6.550;2024-02-16T10:45:18;101044.97;;;12.78;100.00
77725;BME280;66892;53.236;6.550;2024-02-16T10:47:45;101045.91;;;12.73;100.00
77725;BME280;66892;53.236;6.550;2024-02-16T10:50:11;101045.06;;;12.71;100.00
77725;BME280;66892;53.236;6.550;2024-02-16T10:52:41;101051.31;;;12.63;100.00
77725;BME280;66892;53.236;6.550;2024-02-16T10:55:09;101048.72;;;12.54;100.00
77725;BME280;66892;53.236;6.550;2024-02-16T10:57:35;101046.19;;;12.42;100.00
77725;BME280;66892;53.236;6.550;2024-02-16T11:00:07;101052.50;;;12.26;100.00
77725;BME280;66892;53.236;6.550;2024-02-16T11:02:55;101058.81;;;12.02;100.00
77725;BME280;66892;53.236;6.550;2024-02-16T11:05:32;101070.38;;;11.82;100.00
77725;BME280;66892;53.236;6.550;2024-02-16T11:08:03;101075.72;;;11.70;100.00
77725;BME280;66892;53.236;6.550;2024-02-16T11:10:30;101087.22;;;11.59;100.00
77725;BME280;66892;53.236;6.550;2024-02-16T11:13:01;101090.78;;;11.58;100.00
77725;BME280;66892;53.236;6.550;2024-02-16T11:15:28;101097.88;;;11.49;100.00
77725;BME280;66892;53.236;6.550;2024-02-16T11:17:56;101094.34;;;11.44;100.00
77725;BME280;66892;53.236;6.550;2024-02-16T11:20:24;101109.38;;;11.39;100.00
77725;BME280;66892;53.236;6.550;2024-02-16T11:22:51;101112.91;;;11.30;100.00
77725;BME280;66892;53.236;6.550;2024-02-16T11:25:19;101127.94;;;11.25;100.00
77725;BME280;66892;53.236;6.550;2024-02-16T11:27:47;101140.28;;;11.16;100.00
77725;BME280;66892;53.236;6.550;2024-02-16T11:30:13;101143.81;;;11.05;100.00
77725;BME280;66892;53.236;6.550;2024-02-16T11:32:42;101150.91;;;10.97;100.00
77725;BME280;66892;53.236;6.550;2024-02-16T11:35:09;101151.75;;;10.89;100.00
77725;BME280;66892;53.236;6.550;2024-02-16T11:37:37;101159.69;;;10.80;100.00
77725;BME280;66892;53.236;6.550;2024-02-16T11:40:04;101149.97;;;10.73;100.00
77725;BME280;66892;53.236;6.550;2024-02-16T11:42:35;101153.53;;;10.72;100.00
77725;BME280;66892;53.236;6.550;2024-02-16T11:45:01;101160.59;;;10.71;100.00
77725;BME280;66892;53.236;6.550;2024-02-16T11:47:28;101169.38;;;10.64;100.00
77725;BME280;66892;53.236;6.550;2024-02-16T11:50:01;101168.47;;;10.57;100.00
77725;BME280;66892;53.236;6.550;2024-02-16T11:52:27;101187.00;;;10.56;100.00
77725;BME280;66892;53.236;6.550;2024-02-16T11:54:54;101183.44;;;10.51;100.00
77725;BME280;66892;53.236;6.550;2024-02-16T11:57:20;101186.97;;;10.45;100.00
77725;BME280;66892;53.236;6.550;2024-02-16T11:59:47;101202.84;;;10.48;100.00
77725;BME280;66892;53.236;6.550;2024-02-16T12:02:17;101199.28;;;10.42;100.00
77725;BME280;66892;53.236;6.550;2024-02-16T12:04:46;101203.72;;;10.43;100.00
77725;BME280;66892;53.236;6.550;2024-02-16T12:07:13;101209.84;;;10.40;100.00
77725;BME280;66892;53.236;6.550;2024-02-16T12:09:41;101204.56;;;10.36;100.00
77725;BME280;66892;53.236;6.550;2024-02-16T12:12:08;101210.72;;;10.35;100.00
77725;BME280;66892;53.236;6.550;2024-02-16T12:14:34;101216.91;;;10.34;100.00
77725;BME280;66892;53.236;6.550;2024-02-16T12:17:02;101210.75;;;10.33;100.00
77725;BME280;66892;53.236;6.550;2024-02-16T12:19:29;101201.91;;;10.34;100.00
77725;BME280;66892;53.236;6.550;2024-02-16T12:21:55;101197.50;;;10.35;100.00
77725;BME280;66892;53.236;6.550;2024-02-16T12:24:24;101201.03;;;10.32;100.00
77725;BME280;66892;53.236;6.550;2024-02-16T12:26:51;101196.63;;;10.36;100.00
77725;BME280;66892;53.236;6.550;2024-02-16T12:29:17;101193.13;;;10.38;100.00
77725;BME280;66892;53.236;6.550;2024-02-16T12:31:44;101186.94;;;10.38;100.00
77725;BME280;66892;53.236;6.550;2024-02-16T12:34:12;101201.06;;;10.41;100.00
77725;BME280;66892;53.236;6.550;2024-02-16T12:36:39;101202.84;;;10.45;100.00
77725;BME280;66892;53.236;6.550;2024-02-16T12:39:06;101218.72;;;10.48;100.00
77725;BME280;66892;53.236;6.550;2024-02-16T12:41:32;101231.06;;;10.52;100.00
77725;BME280;66892;53.236;6.550;2024-02-16T12:43:58;101245.16;;;10.51;100.00